Anderson, TX

3:14 PM CDT on August 30, 2014 (GMT -0500)
Keith, Tx. | Change Station
CLOSE
Current Station
Personal Weather Station
Location: Iola, TX
Elevation: 246 ft
Nearby Weather Stations

Elev 246 ft 30.63 °N, 96.15 °W | Updated 4 minutes ago

Partly Cloudy
Partly Cloudy
90.7 °F
Feels Like 99 °F
N
3.0
Wind Variable Wind from NE
Gusts 6.0 mph

Today
High -- | Low -- °F
--% Chance of Precip.
Yesterday
High -- | Low -- °F
Precip. -- in
6:59 AM 7:49 PM
Waxing Crescent, 24% visible
Pressure 29.91 in
Visibility 10.0 miles
Clouds Few 4100 ft
Heat Index 99 °F
Dew Point 72 °F
Humidity 55%
Rainfall 0.00 in
Snow Depth Not available.
UV 9 out of 12
Pollen 1.00 out of 12
Air Quality Not available.
Flu Activity Not available.
METAR KCLL 301953Z 00000KT 10SM FEW041 32/21 A2993 RMK AO2 SLP128 T03170206

More Conditions Fewer Conditions

Pressure 29.91 in
Visibility 10.0 miles
Clouds Few 4100 ft
Heat Index 99 °F
Dew Point 72 °F
Humidity 55%
Rainfall 0.00 in
Snow Depth Not available.
UV 9 out of 12
Pollen 1.00 out of 12
Air Quality Not available.
Flu Activity Not available.
METAR KCLL 301953Z 00000KT 10SM FEW041 32/21 A2993 RMK AO2 SLP128 T03170206

More Conditions Fewer Conditions

10-Day Weather Forecast

Almanac

Astronomy

Aug. 30, 2014 Rise Set
Actual Time 6:59 AM CDT 7:49 PM CDT
Civil Twilight 6:34 AM CDT 8:13 PM CDT
Nautical Twilight 6:05 AM CDT 8:42 PM CDT
Astronomical Twilight 5:36 AM CDT 9:12 PM CDT
Moon 11:26 AM CDT 10:47 PM CDT
Length of Visible Light 13h 38m
Length of Day
12h 49m
Tomorrow will be 1m 45s shorter.
Waxing Crescent, 24% of the Moon is Illuminated
Today
Waxing Crescent
Sep 2
First Quarter
Sep 8
Full
Sep 15
Last Quarter
Sep 24
New

Today's Extremes

State Highs State Lows

Community

WunderPhotos

Upload Photos

1,748,622 photos uploaded!

WunderBlogs® & News

Nearby

Snow Depth

Station Depth Elevation
No new snow has been reported.

Earthquake Activity

City Distance Mag. Time & Date
No recent earthquake activity has been reported nearby.
Minimum magnitude displayed is 2.5.

Coastal Water Temperatures

Place Temperature
No Stations Reporting

Nearby Weather Stations